sensor_id;sensor_type;location;lat;lon;timestamp;pressure;altitude;pressure_sealevel;temperature;humidity
79707;BME280;69200;53.612;-2.416;2023-08-30T00:00:13;99131.19;;;11.53;91.86
79707;BME280;69200;53.612;-2.416;2023-08-30T00:02:38;99132.88;;;11.59;93.03
79707;BME280;69200;53.612;-2.416;2023-08-30T00:05:04;99130.34;;;11.42;90.77
79707;BME280;69200;53.612;-2.416;2023-08-30T00:07:30;99135.03;;;11.57;93.46
79707;BME280;69200;53.612;-2.416;2023-08-30T00:09:57;99134.97;;;11.46;92.19
79707;BME280;69200;53.612;-2.416;2023-08-30T00:12:23;99133.09;;;11.52;92.88
79707;BME280;69200;53.612;-2.416;2023-08-30T00:14:49;99126.06;;;11.56;91.22
79707;BME280;69200;53.612;-2.416;2023-08-30T00:17:15;99124.22;;;11.67;92.04
79707;BME280;69200;53.612;-2.416;2023-08-30T00:19:40;99123.59;;;11.55;91.08
79707;BME280;69200;53.612;-2.416;2023-08-30T00:22:06;99118.16;;;11.49;91.98
79707;BME280;69200;53.612;-2.416;2023-08-30T00:24:35;99116.78;;;11.47;92.22
79707;BME280;69200;53.612;-2.416;2023-08-30T00:27:01;99126.31;;;11.49;91.79
79707;BME280;69200;53.612;-2.416;2023-08-30T00:29:28;99120.25;;;11.37;91.74
79707;BME280;69200;53.612;-2.416;2023-08-30T00:31:53;99113.19;;;11.36;92.10
79707;BME280;69200;53.612;-2.416;2023-08-30T00:34:19;99118.13;;;11.44;91.43
79707;BME280;69200;53.612;-2.416;2023-08-30T00:36:44;99113.22;;;11.46;91.25
79707;BME280;69200;53.612;-2.416;2023-08-30T00:39:09;99120.06;;;11.49;91.67
79707;BME280;69200;53.612;-2.416;2023-08-30T00:41:35;99108.75;;;11.72;90.35
79707;BME280;69200;53.612;-2.416;2023-08-30T00:44:00;99100.56;;;11.67;90.87
79707;BME280;69200;53.612;-2.416;2023-08-30T00:46:26;99103.63;;;11.81;90.07
79707;BME280;69200;53.612;-2.416;2023-08-30T00:48:52;99110.38;;;11.78;90.01
79707;BME280;69200;53.612;-2.416;2023-08-30T00:51:19;99107.94;;;11.72;90.05
79707;BME280;69200;53.612;-2.416;2023-08-30T00:53:45;99104.34;;;11.61;90.91
79707;BME280;69200;53.612;-2.416;2023-08-30T00:56:11;99101.09;;;11.69;91.50
79707;BME280;69200;53.612;-2.416;2023-08-30T00:58:37;99096.19;;;11.61;90.78
79707;BME280;69200;53.612;-2.416;2023-08-30T01:01:04;99093.78;;;11.65;89.68
79707;BME280;69200;53.612;-2.416;2023-08-30T01:03:33;99091.78;;;11.45;91.68
79707;BME280;69200;53.612;-2.416;2023-08-30T01:05:59;99090.38;;;11.32;90.54
79707;BME280;69200;53.612;-2.416;2023-08-30T01:08:24;99088.44;;;11.28;91.96
79707;BME280;69200;53.612;-2.416;2023-08-30T01:13:41;99098.72;;;11.20;93.72
79707;BME280;69200;53.612;-2.416;2023-08-30T01:16:07;99093.75;;;11.07;93.12
79707;BME280;69200;53.612;-2.416;2023-08-30T01:18:35;99092.00;;;11.38;92.57
79707;BME280;69200;53.612;-2.416;2023-08-30T01:21:05;99095.06;;;11.47;92.50
79707;BME280;69200;53.612;-2.416;2023-08-30T01:26:10;99090.44;;;11.00;92.37
79707;BME280;69200;53.612;-2.416;2023-08-30T01:28:39;99092.38;;;11.05;92.87
79707;BME280;69200;53.612;-2.416;2023-08-30T01:31:06;99092.41;;;11.10;92.53
79707;BME280;69200;53.612;-2.416;2023-08-30T01:33:34;99085.03;;;11.00;92.41
79707;BME280;69200;53.612;-2.416;2023-08-30T01:36:01;99096.78;;;11.16;93.03
79707;BME280;69200;53.612;-2.416;2023-08-30T01:38:29;99088.75;;;11.36;93.57
79707;BME280;69200;53.612;-2.416;2023-08-30T01:40:58;99087.63;;;11.27;92.62
79707;BME280;69200;53.612;-2.416;2023-08-30T01:43:26;99084.13;;;11.37;91.99
79707;BME280;69200;53.612;-2.416;2023-08-30T01:45:54;99093.69;;;11.49;90.05
79707;BME280;69200;53.612;-2.416;2023-08-30T01:48:22;99087.75;;;11.58;90.25
79707;BME280;69200;53.612;-2.416;2023-08-30T01:50:48;99093.16;;;11.53;89.15
79707;BME280;69200;53.612;-2.416;2023-08-30T01:53:15;99082.84;;;11.49;89.33
79707;BME280;69200;53.612;-2.416;2023-08-30T01:55:42;99081.75;;;11.51;90.33
79707;BME280;69200;53.612;-2.416;2023-08-30T01:58:07;99078.19;;;11.45;91.92
79707;BME280;69200;53.612;-2.416;2023-08-30T02:00:35;99073.53;;;11.35;90.92
79707;BME280;69200;53.612;-2.416;2023-08-30T02:03:07;99064.41;;;11.67;90.48
79707;BME280;69200;53.612;-2.416;2023-08-30T02:05:33;99059.50;;;11.59;91.08
79707;BME280;69200;53.612;-2.416;2023-08-30T02:08:05;99068.78;;;11.68;89.69
79707;BME280;69200;53.612;-2.416;2023-08-30T02:10:41;99073.13;;;11.69;88.95
79707;BME280;69200;53.612;-2.416;2023-08-30T02:13:07;99063.91;;;11.75;90.57
79707;BME280;69200;53.612;-2.416;2023-08-30T02:15:33;99067.66;;;11.59;91.47
79707;BME280;69200;53.612;-2.416;2023-08-30T02:18:01;99067.63;;;11.48;91.82
79707;BME280;69200;53.612;-2.416;2023-08-30T02:20:28;99071.94;;;11.44;91.96
79707;BME280;69200;53.612;-2.416;2023-08-30T02:22:58;99074.13;;;11.53;92.22
79707;BME280;69200;53.612;-2.416;2023-08-30T02:25:25;99072.75;;;11.45;91.61
79707;BME280;69200;53.612;-2.416;2023-08-30T02:27:50;99074.38;;;11.46;91.63
79707;BME280;69200;53.612;-2.416;2023-08-30T02:30:15;99062.69;;;11.40;92.58
79707;BME280;69200;53.612;-2.416;2023-08-30T02:32:41;99071.03;;;11.29;91.59
79707;BME280;69200;53.612;-2.416;2023-08-30T02:35:06;99065.66;;;11.34;92.77
79707;BME280;69200;53.612;-2.416;2023-08-30T02:37:32;99063.72;;;11.29;93.28
79707;BME280;69200;53.612;-2.416;2023-08-30T02:39:57;99070.47;;;11.16;91.73
79707;BME280;69200;53.612;-2.416;2023-08-30T02:42:23;99075.47;;;11.40;92.76
79707;BME280;69200;53.612;-2.416;2023-08-30T02:44:48;99071.44;;;11.47;92.00
79707;BME280;69200;53.612;-2.416;2023-08-30T02:47:13;99069.31;;;11.65;91.98
79707;BME280;69200;53.612;-2.416;2023-08-30T02:49:39;99060.06;;;11.66;92.21
79707;BME280;69200;53.612;-2.416;2023-08-30T02:52:04;99061.16;;;11.70;93.01
79707;BME280;69200;53.612;-2.416;2023-08-30T02:54:30;99061.13;;;11.60;91.40
79707;BME280;69200;53.612;-2.416;2023-08-30T02:56:56;99062.78;;;11.71;91.03
79707;BME280;69200;53.612;-2.416;2023-08-30T02:59:21;99061.09;;;11.55;92.04
79707;BME280;69200;53.612;-2.416;2023-08-30T03:01:46;99061.41;;;11.58;92.67
79707;BME280;69200;53.612;-2.416;2023-08-30T03:04:12;99062.53;;;11.77;91.70
79707;BME280;69200;53.612;-2.416;2023-08-30T03:06:37;99062.25;;;11.64;92.38
79707;BME280;69200;53.612;-2.416;2023-08-30T03:09:03;99063.44;;;11.88;91.69
79707;BME280;69200;53.612;-2.416;2023-08-30T03:11:28;99057.72;;;11.90;91.84
79707;BME280;69200;53.612;-2.416;2023-08-30T03:13:54;99058.53;;;11.90;91.24
79707;BME280;69200;53.612;-2.416;2023-08-30T03:16:20;99051.44;;;11.79;91.61
79707;BME280;69200;53.612;-2.416;2023-08-30T03:18:47;99050.84;;;11.67;92.67
79707;BME280;69200;53.612;-2.416;2023-08-30T03:21:13;99054.13;;;11.79;91.71
79707;BME280;69200;53.612;-2.416;2023-08-30T03:23:40;99053.81;;;11.70;91.60
79707;BME280;69200;53.612;-2.416;2023-08-30T03:26:13;99051.38;;;11.64;92.50
79707;BME280;69200;53.612;-2.416;2023-08-30T03:28:39;99046.19;;;11.62;91.67
79707;BME280;69200;53.612;-2.416;2023-08-30T03:31:12;99050.84;;;11.67;93.14
79707;BME280;69200;53.612;-2.416;2023-08-30T03:33:38;99054.47;;;11.88;91.46
79707;BME280;69200;53.612;-2.416;2023-08-30T03:36:04;99047.66;;;11.90;91.68
79707;BME280;69200;53.612;-2.416;2023-08-30T03:38:29;99046.06;;;12.04;91.44
79707;BME280;69200;53.612;-2.416;2023-08-30T03:40:54;99046.84;;;11.90;91.88
79707;BME280;69200;53.612;-2.416;2023-08-30T03:43:20;99044.94;;;12.00;91.25
79707;BME280;69200;53.612;-2.416;2023-08-30T03:45:46;99034.59;;;11.82;90.32
79707;BME280;69200;53.612;-2.416;2023-08-30T03:48:11;99037.59;;;11.91;91.61
79707;BME280;69200;53.612;-2.416;2023-08-30T03:50:36;99040.22;;;11.70;91.16
79707;BME280;69200;53.612;-2.416;2023-08-30T03:53:02;99039.16;;;11.71;91.51
79707;BME280;69200;53.612;-2.416;2023-08-30T03:55:28;99038.31;;;11.71;90.75
79707;BME280;69200;53.612;-2.416;2023-08-30T03:57:53;99034.25;;;11.68;91.58
79707;BME280;69200;53.612;-2.416;2023-08-30T04:00:19;99035.84;;;11.54;92.03
79707;BME280;69200;53.612;-2.416;2023-08-30T04:02:44;99033.44;;;11.68;91.91
79707;BME280;69200;53.612;-2.416;2023-08-30T04:05:09;99044.81;;;11.55;92.33
79707;BME280;69200;53.612;-2.416;2023-08-30T04:07:38;99039.66;;;11.58;91.89
79707;BME280;69200;53.612;-2.416;2023-08-30T04:10:03;99042.41;;;11.63;91.98
79707;BME280;69200;53.612;-2.416;2023-08-30T04:12:32;99040.22;;;11.60;90.78
79707;BME280;69200;53.612;-2.416;2023-08-30T04:14:58;99042.88;;;11.40;90.74
79707;BME280;69200;53.612;-2.416;2023-08-30T04:17:24;99035.28;;;11.47;92.68
79707;BME280;69200;53.612;-2.416;2023-08-30T04:19:52;99057.03;;;11.52;92.58
79707;BME280;69200;53.612;-2.416;2023-08-30T04:22:18;99042.94;;;11.70;91.74
79707;BME280;69200;53.612;-2.416;2023-08-30T04:24:46;99038.84;;;11.63;91.64
79707;BME280;69200;53.612;-2.416;2023-08-30T04:27:12;99048.59;;;11.54;91.61
79707;BME280;69200;53.612;-2.416;2023-08-30T04:29:37;99052.91;;;11.44;92.71
79707;BME280;69200;53.612;-2.416;2023-08-30T04:32:03;99048.63;;;11.59;93.40
79707;BME280;69200;53.612;-2.416;2023-08-30T04:34:28;99043.16;;;11.54;92.46
79707;BME280;69200;53.612;-2.416;2023-08-30T04:36:55;99046.47;;;11.56;91.91
79707;BME280;69200;53.612;-2.416;2023-08-30T04:39:21;99048.06;;;11.52;91.81
79707;BME280;69200;53.612;-2.416;2023-08-30T04:41:46;99045.88;;;11.48;91.37
79707;BME280;69200;53.612;-2.416;2023-08-30T04:44:11;99046.94;;;11.42;93.14
79707;BME280;69200;53.612;-2.416;2023-08-30T04:46:37;99044.81;;;11.60;91.32
79707;BME280;69200;53.612;-2.416;2023-08-30T04:49:02;99044.31;;;11.68;91.85
79707;BME280;69200;53.612;-2.416;2023-08-30T04:51:29;99040.22;;;11.55;91.38
79707;BME280;69200;53.612;-2.416;2023-08-30T04:53:55;99042.31;;;11.43;90.99
79707;BME280;69200;53.612;-2.416;2023-08-30T04:56:20;99042.09;;;11.49;92.21
79707;BME280;69200;53.612;-2.416;2023-08-30T04:58:46;99044.50;;;11.41;93.04
79707;BME280;69200;53.612;-2.416;2023-08-30T05:01:11;99042.63;;;11.52;93.01
79707;BME280;69200;53.612;-2.416;2023-08-30T05:03:39;99045.09;;;11.58;93.03
79707;BME280;69200;53.612;-2.416;2023-08-30T05:06:04;99046.69;;;11.54;92.46
79707;BME280;69200;53.612;-2.416;2023-08-30T05:08:30;99043.38;;;11.32;92.27
79707;BME280;69200;53.612;-2.416;2023-08-30T05:10:55;99049.63;;;11.37;93.18
79707;BME280;69200;53.612;-2.416;2023-08-30T05:13:21;99034.88;;;11.18;93.73
79707;BME280;69200;53.612;-2.416;2023-08-30T05:15:47;99048.47;;;11.18;93.44
79707;BME280;69200;53.612;-2.416;2023-08-30T05:18:12;99061.03;;;11.34;93.61
79707;BME280;69200;53.612;-2.416;2023-08-30T05:20:38;99049.59;;;11.27;94.39
79707;BME280;69200;53.612;-2.416;2023-08-30T05:23:04;99056.16;;;11.31;94.36
79707;BME280;69200;53.612;-2.416;2023-08-30T05:25:30;99047.19;;;11.36;93.24
79707;BME280;69200;53.612;-2.416;2023-08-30T05:27:55;99045.84;;;11.43;93.13
79707;BME280;69200;53.612;-2.416;2023-08-30T05:30:21;99060.22;;;11.39;92.54
79707;BME280;69200;53.612;-2.416;2023-08-30T05:32:46;99056.97;;;11.37;92.51
79707;BME280;69200;53.612;-2.416;2023-08-30T05:35:11;99052.31;;;11.27;93.13
79707;BME280;69200;53.612;-2.416;2023-08-30T05:37:37;99058.94;;;11.52;94.21
79707;BME280;69200;53.612;-2.416;2023-08-30T05:40:03;99055.66;;;11.49;93.78
79707;BME280;69200;53.612;-2.416;2023-08-30T05:42:29;99052.09;;;11.44;93.52
79707;BME280;69200;53.612;-2.416;2023-08-30T05:44:54;99054.00;;;11.43;93.73
79707;BME280;69200;53.612;-2.416;2023-08-30T05:47:20;99044.19;;;11.37;93.46
79707;BME280;69200;53.612;-2.416;2023-08-30T05:49:46;99040.41;;;11.38;93.43
79707;BME280;69200;53.612;-2.416;2023-08-30T05:52:15;99036.03;;;11.37;93.49
79707;BME280;69200;53.612;-2.416;2023-08-30T05:54:42;99034.97;;;11.38;94.36
79707;BME280;69200;53.612;-2.416;2023-08-30T05:57:09;99038.19;;;11.25;93.54
79707;BME280;69200;53.612;-2.416;2023-08-30T05:59:34;99047.44;;;11.34;94.21
79707;BME280;69200;53.612;-2.416;2023-08-30T06:02:00;99039.84;;;11.36;94.28
79707;BME280;69200;53.612;-2.416;2023-08-30T06:04:26;99034.50;;;11.57;92.78
79707;BME280;69200;53.612;-2.416;2023-08-30T06:06:51;99040.75;;;11.57;93.19
79707;BME280;69200;53.612;-2.416;2023-08-30T06:09:16;99043.78;;;11.66;94.33
79707;BME280;69200;53.612;-2.416;2023-08-30T06:11:42;99031.53;;;11.68;92.60
79707;BME280;69200;53.612;-2.416;2023-08-30T06:14:07;99028.84;;;11.73;93.21
79707;BME280;69200;53.612;-2.416;2023-08-30T06:16:33;99015.53;;;11.72;92.90
79707;BME280;69200;53.612;-2.416;2023-08-30T06:18:58;99026.13;;;11.78;92.45
79707;BME280;69200;53.612;-2.416;2023-08-30T06:21:25;99024.81;;;11.81;92.28
79707;BME280;69200;53.612;-2.416;2023-08-30T06:23:51;99035.69;;;11.86;91.96
79707;BME280;69200;53.612;-2.416;2023-08-30T06:26:18;99027.53;;;11.86;91.36
79707;BME280;69200;53.612;-2.416;2023-08-30T06:28:43;99027.81;;;11.95;91.81
79707;BME280;69200;53.612;-2.416;2023-08-30T06:31:10;99032.44;;;11.94;91.03
79707;BME280;69200;53.612;-2.416;2023-08-30T06:33:35;99034.63;;;11.87;91.06
79707;BME280;69200;53.612;-2.416;2023-08-30T06:36:01;99045.75;;;11.86;90.93
79707;BME280;69200;53.612;-2.416;2023-08-30T06:38:26;99042.78;;;12.02;91.79
79707;BME280;69200;53.612;-2.416;2023-08-30T06:40:52;99037.84;;;11.84;91.18
79707;BME280;69200;53.612;-2.416;2023-08-30T06:43:17;99046.03;;;11.89;91.62
79707;BME280;69200;53.612;-2.416;2023-08-30T06:45:43;99044.16;;;12.05;91.44
79707;BME280;69200;53.612;-2.416;2023-08-30T06:48:09;99040.88;;;12.08;91.17
79707;BME280;69200;53.612;-2.416;2023-08-30T06:50:35;99042.25;;;12.06;91.91
79707;BME280;69200;53.612;-2.416;2023-08-30T06:53:02;99040.63;;;12.04;92.29
79707;BME280;69200;53.612;-2.416;2023-08-30T06:55:28;99038.44;;;12.17;93.04
79707;BME280;69200;53.612;-2.416;2023-08-30T06:57:54;99033.03;;;12.32;93.47
79707;BME280;69200;53.612;-2.416;2023-08-30T07:00:20;99033.00;;;12.27;92.94
79707;BME280;69200;53.612;-2.416;2023-08-30T07:02:45;99045.25;;;12.50;91.56
79707;BME280;69200;53.612;-2.416;2023-08-30T07:05:12;99034.13;;;12.51;90.82
79707;BME280;69200;53.612;-2.416;2023-08-30T07:07:37;99039.28;;;12.53;91.45
79707;BME280;69200;53.612;-2.416;2023-08-30T07:10:03;99048.25;;;12.58;91.01
79707;BME280;69200;53.612;-2.416;2023-08-30T07:12:29;99039.00;;;12.59;91.19
79707;BME280;69200;53.612;-2.416;2023-08-30T07:14:54;99037.66;;;12.52;90.86
79707;BME280;69200;53.612;-2.416;2023-08-30T07:17:20;99033.84;;;12.48;91.59
79707;BME280;69200;53.612;-2.416;2023-08-30T07:19:45;99043.88;;;12.73;91.97
79707;BME280;69200;53.612;-2.416;2023-08-30T07:22:11;99031.91;;;12.74;92.06
79707;BME280;69200;53.612;-2.416;2023-08-30T07:24:37;99037.63;;;12.72;91.39
79707;BME280;69200;53.612;-2.416;2023-08-30T07:27:03;99042.53;;;12.75;90.60
79707;BME280;69200;53.612;-2.416;2023-08-30T07:29:29;99036.19;;;13.05;90.05
79707;BME280;69200;53.612;-2.416;2023-08-30T07:31:54;99033.41;;;13.31;88.54
79707;BME280;69200;53.612;-2.416;2023-08-30T07:34:20;99037.66;;;13.57;87.85
79707;BME280;69200;53.612;-2.416;2023-08-30T07:36:45;99043.56;;;13.80;87.50
79707;BME280;69200;53.612;-2.416;2023-08-30T07:39:11;99034.66;;;13.64;87.43
79707;BME280;69200;53.612;-2.416;2023-08-30T07:41:36;99038.56;;;13.42;87.20
79707;BME280;69200;53.612;-2.416;2023-08-30T07:44:02;99045.69;;;13.33;87.91
79707;BME280;69200;53.612;-2.416;2023-08-30T07:46:28;99053.88;;;13.13;88.64
79707;BME280;69200;53.612;-2.416;2023-08-30T07:48:54;99038.13;;;13.00;88.34
79707;BME280;69200;53.612;-2.416;2023-08-30T07:51:20;99050.41;;;12.87;88.87
79707;BME280;69200;53.612;-2.416;2023-08-30T07:53:46;99051.22;;;12.93;89.01
79707;BME280;69200;53.612;-2.416;2023-08-30T07:56:12;99047.41;;;12.78;87.30
79707;BME280;69200;53.612;-2.416;2023-08-30T07:58:37;99052.06;;;12.68;85.84
79707;BME280;69200;53.612;-2.416;2023-08-30T08:01:02;99057.50;;;12.68;86.81
79707;BME280;69200;53.612;-2.416;2023-08-30T08:03:28;99050.69;;;12.70;87.68
79707;BME280;69200;53.612;-2.416;2023-08-30T08:05:54;99039.53;;;12.72;88.92
79707;BME280;69200;53.612;-2.416;2023-08-30T08:08:19;99043.84;;;12.83;89.09
79707;BME280;69200;53.612;-2.416;2023-08-30T08:10:44;99044.34;;;13.15;88.61
79707;BME280;69200;53.612;-2.416;2023-08-30T08:13:10;99026.78;;;13.52;87.81
79707;BME280;69200;53.612;-2.416;2023-08-30T08:15:35;99034.06;;;14.11;85.57
79707;BME280;69200;53.612;-2.416;2023-08-30T08:18:02;99041.81;;;14.67;83.01
79707;BME280;69200;53.612;-2.416;2023-08-30T08:20:29;99038.25;;;15.25;81.74
79707;BME280;69200;53.612;-2.416;2023-08-30T08:22:54;99033.59;;;15.25;79.54
79707;BME280;69200;53.612;-2.416;2023-08-30T08:25:20;99036.38;;;15.44;78.51
79707;BME280;69200;53.612;-2.416;2023-08-30T08:27:48;99038.94;;;15.35;78.47
79707;BME280;69200;53.612;-2.416;2023-08-30T08:30:13;99043.09;;;15.52;80.04
79707;BME280;69200;53.612;-2.416;2023-08-30T08:32:39;99047.47;;;15.53;77.28
79707;BME280;69200;53.612;-2.416;2023-08-30T08:35:04;99037.78;;;15.42;77.82
79707;BME280;69200;53.612;-2.416;2023-08-30T08:37:31;99045.84;;;15.28;80.03
79707;BME280;69200;53.612;-2.416;2023-08-30T08:39:56;99048.25;;;15.10;77.27
79707;BME280;69200;53.612;-2.416;2023-08-30T08:42:22;99048.53;;;14.80;79.63
79707;BME280;69200;53.612;-2.416;2023-08-30T08:44:50;99063.53;;;14.82;79.67
79707;BME280;69200;53.612;-2.416;2023-08-30T08:47:16;99066.66;;;14.71;79.24
79707;BME280;69200;53.612;-2.416;2023-08-30T08:49:44;99067.28;;;14.63;78.95
79707;BME280;69200;53.612;-2.416;2023-08-30T08:52:11;99058.00;;;14.24;80.44
79707;BME280;69200;53.612;-2.416;2023-08-30T08:54:39;99070.25;;;14.27;80.29
79707;BME280;69200;53.612;-2.416;2023-08-30T08:57:09;99069.31;;;14.42;78.88
79707;BME280;69200;53.612;-2.416;2023-08-30T08:59:34;99077.63;;;14.66;78.55
79707;BME280;69200;53.612;-2.416;2023-08-30T09:02:00;99069.47;;;14.90;77.46
79707;BME280;69200;53.612;-2.416;2023-08-30T09:04:26;99073.75;;;15.01;76.58
79707;BME280;69200;53.612;-2.416;2023-08-30T09:06:53;99066.66;;;15.00;74.93
79707;BME280;69200;53.612;-2.416;2023-08-30T09:09:20;99070.91;;;14.82;77.25
79707;BME280;69200;53.612;-2.416;2023-08-30T09:11:45;99066.81;;;14.85;75.71
79707;BME280;69200;53.612;-2.416;2023-08-30T09:14:11;99072.94;;;15.00;74.71
79707;BME280;69200;53.612;-2.416;2023-08-30T09:16:36;99063.66;;;15.25;74.38
79707;BME280;69200;53.612;-2.416;2023-08-30T09:19:03;99053.13;;;15.37;71.06
79707;BME280;69200;53.612;-2.416;2023-08-30T09:21:29;99064.13;;;15.08;72.30
79707;BME280;69200;53.612;-2.416;2023-08-30T09:23:59;99073.69;;;15.06;73.40
79707;BME280;69200;53.612;-2.416;2023-08-30T09:26:26;99077.97;;;15.17;70.66
79707;BME280;69200;53.612;-2.416;2023-08-30T09:28:53;99080.78;;;15.31;66.97
79707;BME280;69200;53.612;-2.416;2023-08-30T09:31:19;99069.88;;;15.31;67.14
79707;BME280;69200;53.612;-2.416;2023-08-30T09:33:45;99074.53;;;15.30;65.85
79707;BME280;69200;53.612;-2.416;2023-08-30T09:36:13;99078.25;;;15.39;66.58
79707;BME280;69200;53.612;-2.416;2023-08-30T09:38:38;99084.06;;;15.33;65.02
79707;BME280;69200;53.612;-2.416;2023-08-30T09:41:05;99082.97;;;15.58;66.03
79707;BME280;69200;53.612;-2.416;2023-08-30T09:43:32;99081.84;;;15.64;67.88
79707;BME280;69200;53.612;-2.416;2023-08-30T09:46:03;99079.47;;;15.76;64.13
79707;BME280;69200;53.612;-2.416;2023-08-30T09:48:29;99084.44;;;15.74;63.25
79707;BME280;69200;53.612;-2.416;2023-08-30T09:50:57;99084.66;;;15.78;60.57
79707;BME280;69200;53.612;-2.416;2023-08-30T09:53:26;99084.84;;;15.62;62.71
79707;BME280;69200;53.612;-2.416;2023-08-30T09:55:56;99082.72;;;15.78;61.90
79707;BME280;69200;53.612;-2.416;2023-08-30T09:58:23;99084.34;;;15.79;62.47
79707;BME280;69200;53.612;-2.416;2023-08-30T10:00:49;99084.38;;;15.98;63.82
79707;BME280;69200;53.612;-2.416;2023-08-30T10:03:15;99088.16;;;16.40;62.81
79707;BME280;69200;53.612;-2.416;2023-08-30T10:05:45;99094.53;;;16.16;61.14
79707;BME280;69200;53.612;-2.416;2023-08-30T10:08:13;99105.69;;;16.01;61.96
79707;BME280;69200;53.612;-2.416;2023-08-30T10:10:39;99098.97;;;16.12;61.81
79707;BME280;69200;53.612;-2.416;2023-08-30T10:13:05;99094.22;;;16.37;60.99
79707;BME280;69200;53.612;-2.416;2023-08-30T10:15:33;99097.38;;;16.63;60.17
79707;BME280;69200;53.612;-2.416;2023-08-30T10:18:01;99102.59;;;16.45;61.71
79707;BME280;69200;53.612;-2.416;2023-08-30T10:20:28;99110.97;;;16.68;59.10
79707;BME280;69200;53.612;-2.416;2023-08-30T10:22:55;99108.50;;;16.53;58.93
79707;BME280;69200;53.612;-2.416;2023-08-30T10:25:26;99095.63;;;16.34;59.52
79707;BME280;69200;53.612;-2.416;2023-08-30T10:27:55;99088.66;;;16.61;57.80
79707;BME280;69200;53.612;-2.416;2023-08-30T10:30:21;99104.56;;;16.77;58.48
79707;BME280;69200;53.612;-2.416;2023-08-30T10:32:48;99104.09;;;16.89;57.48
79707;BME280;69200;53.612;-2.416;2023-08-30T10:35:15;99109.63;;;17.03;57.77
79707;BME280;69200;53.612;-2.416;2023-08-30T10:37:42;99100.19;;;17.09;57.11
79707;BME280;69200;53.612;-2.416;2023-08-30T10:40:08;99098.25;;;17.23;56.89
79707;BME280;69200;53.612;-2.416;2023-08-30T10:42:34;99113.94;;;17.37;56.64
79707;BME280;69200;53.612;-2.416;2023-08-30T10:45:01;99109.75;;;17.25;56.02
79707;BME280;69200;53.612;-2.416;2023-08-30T10:47:35;99108.94;;;17.39;53.44
79707;BME280;69200;53.612;-2.416;2023-08-30T10:50:05;99104.66;;;17.19;55.45
79707;BME280;69200;53.612;-2.416;2023-08-30T10:52:32;99111.84;;;17.15;54.28
79707;BME280;69200;53.612;-2.416;2023-08-30T10:55:12;99110.38;;;17.36;55.65
79707;BME280;69200;53.612;-2.416;2023-08-30T10:57:41;99116.34;;;17.38;53.78
79707;BME280;69200;53.612;-2.416;2023-08-30T11:02:45;99121.44;;;17.31;52.64
79707;BME280;69200;53.612;-2.416;2023-08-30T11:05:11;99122.88;;;17.42;55.31
79707;BME280;69200;53.612;-2.416;2023-08-30T11:07:37;99119.03;;;17.57;51.55
79707;BME280;69200;53.612;-2.416;2023-08-30T11:10:06;99125.47;;;17.20;53.62
79707;BME280;69200;53.612;-2.416;2023-08-30T11:12:32;99114.47;;;17.06;56.40
79707;BME280;69200;53.612;-2.416;2023-08-30T11:14:57;99118.22;;;17.43;57.27
79707;BME280;69200;53.612;-2.416;2023-08-30T11:17:23;99118.63;;;17.50;54.20
79707;BME280;69200;53.612;-2.416;2023-08-30T11:19:57;99116.75;;;17.31;52.75
79707;BME280;69200;53.612;-2.416;2023-08-30T11:22:24;99110.03;;;17.24;52.58
79707;BME280;69200;53.612;-2.416;2023-08-30T11:24:50;99116.44;;;17.19;51.96
79707;BME280;69200;53.612;-2.416;2023-08-30T11:27:19;99119.78;;;17.16;50.99
79707;BME280;69200;53.612;-2.416;2023-08-30T11:29:44;99113.81;;;16.82;52.31
79707;BME280;69200;53.612;-2.416;2023-08-30T11:32:09;99121.81;;;16.59;54.31
79707;BME280;69200;53.612;-2.416;2023-08-30T11:34:35;99120.94;;;16.45;52.27
79707;BME280;69200;53.612;-2.416;2023-08-30T11:37:00;99117.97;;;16.41;53.92
79707;BME280;69200;53.612;-2.416;2023-08-30T11:39:28;99130.19;;;16.30;53.25
79707;BME280;69200;53.612;-2.416;2023-08-30T11:41:53;99130.69;;;16.51;55.55
79707;BME280;69200;53.612;-2.416;2023-08-30T11:44:19;99126.69;;;16.62;55.28
79707;BME280;69200;53.612;-2.416;2023-08-30T11:46:44;99130.94;;;16.55;55.31
79707;BME280;69200;53.612;-2.416;2023-08-30T11:49:11;99121.34;;;16.52;55.17
79707;BME280;69200;53.612;-2.416;2023-08-30T11:51:38;99123.72;;;16.59;56.61
79707;BME280;69200;53.612;-2.416;2023-08-30T11:54:04;99126.16;;;16.60;54.33
79707;BME280;69200;53.612;-2.416;2023-08-30T11:56:31;99126.09;;;16.28;56.17
79707;BME280;69200;53.612;-2.416;2023-08-30T11:58:57;99129.09;;;16.31;56.54
79707;BME280;69200;53.612;-2.416;2023-08-30T12:01:22;99133.44;;;16.32;56.20
79707;BME280;69200;53.612;-2.416;2023-08-30T12:03:48;99129.06;;;16.50;56.01
79707;BME280;69200;53.612;-2.416;2023-08-30T12:06:15;99132.41;;;16.85;56.26
79707;BME280;69200;53.612;-2.416;2023-08-30T12:08:41;99127.56;;;16.95;55.05
79707;BME280;69200;53.612;-2.416;2023-08-30T12:11:17;99127.47;;;17.00;55.93
79707;BME280;69200;53.612;-2.416;2023-08-30T12:13:43;99122.97;;;16.91;56.00
79707;BME280;69200;53.612;-2.416;2023-08-30T12:16:15;99128.53;;;17.18;54.36
79707;BME280;69200;53.612;-2.416;2023-08-30T12:18:41;99133.13;;;16.90;56.08
79707;BME280;69200;53.612;-2.416;2023-08-30T12:21:07;99141.78;;;16.97;55.40
79707;BME280;69200;53.612;-2.416;2023-08-30T12:23:34;99140.44;;;16.95;56.16
79707;BME280;69200;53.612;-2.416;2023-08-30T12:26:09;99141.44;;;16.85;53.66
79707;BME280;69200;53.612;-2.416;2023-08-30T12:28:37;99142.13;;;16.77;55.37
79707;BME280;69200;53.612;-2.416;2023-08-30T12:31:03;99150.84;;;16.79;55.09
79707;BME280;69200;53.612;-2.416;2023-08-30T12:33:36;99155.28;;;16.37;56.39
79707;BME280;69200;53.612;-2.416;2023-08-30T12:36:01;99153.84;;;16.59;56.63
79707;BME280;69200;53.612;-2.416;2023-08-30T12:38:27;99147.00;;;16.80;56.19
79707;BME280;69200;53.612;-2.416;2023-08-30T12:40:54;99145.31;;;16.98;55.81
79707;BME280;69200;53.612;-2.416;2023-08-30T12:43:20;99138.97;;;16.65;55.50
79707;BME280;69200;53.612;-2.416;2023-08-30T12:45:46;99141.44;;;16.85;56.64
79707;BME280;69200;53.612;-2.416;2023-08-30T12:48:13;99126.91;;;17.31;56.38
79707;BME280;69200;53.612;-2.416;2023-08-30T12:50:41;99131.13;;;17.70;55.20
79707;BME280;69200;53.612;-2.416;2023-08-30T12:53:10;99130.44;;;17.78;55.37